PWSweather.com
Personal Weather Stations
Station Observations
PEGGY
Tortona, VillalverniaIT 15050

TortonaVillalverniaIT 15050

Lat: 44.816913, Lon: 8.854894

Elevation: 529

Station Type: PCE FWS 20

http://villalvernia.altervista.org/

Latest ConditionsUpdated 6:45:03 AM GMT+01:01 Sunday, Mar 24, 2019
Currently Today's Max Today's Min Today's Average
Temperature 36.7°F2.6°C 43.2°F6.2°C 36.5°F2.5°C 39.3°F4.1°C
Dew Point 31.4°F-0.3°C 34.7°F1.5°C 30.9°F-0.6°C 32.6°F0.3°C
Winds Calm Calm 2.3 mph -3.7 kmh - - 1.2 mph 1.9 kmh
Wind Gusts 1.2 mph1.9 kmh 3.5 mph5.6 kmh - -
Humidity 81% 81% 72% 77%
Pressure 30.22 in1023.4 mb 30.22 in1023.4 mb 30.21 in1023.0 mb -
Hour Temp Dew Point Humidity Winds Wind Gusts Pressure Precip Precip Rate Daily Precip Total
06:45 AM 36.7°F2.6°C 31.4°F-0.3°C 81% Calm Calm 1.2 mph1.9 kmh 30.22 in1023.4 mb - 0.00 in0.0 mm 0.00 in0.0 mm
06:30 AM 36.5°F2.5°C 30.9°F-0.6°C 80% 1.2 mph SE1.9 kmh SE 2.3 mph3.7 kmh 30.21 in1023.0 mb - 0.00 in0.0 mm 0.00 in0.0 mm
06:15 AM 36.7°F2.6°C 31.1°F-0.5°C 80% 1.2 mph SSE1.9 kmh SSE 3.5 mph5.6 kmh 30.21 in1023.0 mb - 0.00 in0.0 mm 0.00 in0.0 mm
06:00 AM 37.0°F2.8°C 31.4°F-0.3°C 80% 1.2 mph SE1.9 kmh SE 2.3 mph3.7 kmh 30.22 in1023.4 mb - 0.00 in0.0 mm 0.00 in0.0 mm
05:45 AM 37.6°F3.1°C 32.0°F0.0°C 80% 1.2 mph SE1.9 kmh SE 2.3 mph3.7 kmh 30.21 in1023.0 mb - 0.00 in0.0 mm 0.00 in0.0 mm
05:30 AM 37.4°F3.0°C 31.8°F-0.1°C 80% 1.2 mph SE1.9 kmh SE 3.5 mph5.6 kmh 30.21 in1023.0 mb - 0.00 in0.0 mm 0.00 in0.0 mm
05:15 AM 37.4°F3.0°C 31.8°F-0.1°C 80% 1.2 mph SE1.9 kmh SE 2.3 mph3.7 kmh 30.21 in1023.0 mb - 0.00 in0.0 mm 0.00 in0.0 mm
05:00 AM 37.8°F3.2°C 32.1°F0.1°C 80% 1.2 mph S1.9 kmh S 2.3 mph3.7 kmh 30.21 in1023.0 mb - 0.00 in0.0 mm 0.00 in0.0 mm
04:45 AM 37.9°F3.3°C 32.0°F0.0°C 79% 1.2 mph SE1.9 kmh SE 1.2 mph1.9 kmh 30.22 in1023.4 mb - 0.00 in0.0 mm 0.00 in0.0 mm
04:30 AM 38.0°F3.3°C 31.7°F-0.2°C 78% 1.2 mph NW1.9 kmh NW 3.5 mph5.6 kmh 30.21 in1023.0 mb - 0.00 in0.0 mm 0.00 in0.0 mm
04:15 AM 38.7°F3.7°C 32.7°F0.4°C 79% 2.3 mph SE3.7 kmh SE 3.5 mph5.6 kmh 30.21 in1023.0 mb - 0.00 in0.0 mm 0.00 in0.0 mm
04:00 AM 38.8°F3.8°C 32.9°F0.5°C 79% 1.2 mph E1.9 kmh E 2.3 mph3.7 kmh 30.21 in1023.0 mb - 0.00 in0.0 mm 0.00 in0.0 mm
03:45 AM 38.5°F3.6°C 32.2°F0.1°C 78% 1.2 mph SW1.9 kmh SW 2.3 mph3.7 kmh 30.21 in1023.0 mb - 0.00 in0.0 mm 0.00 in0.0 mm
03:30 AM 38.8°F3.8°C 32.2°F0.1°C 77% 1.2 mph SE1.9 kmh SE 3.5 mph5.6 kmh 30.21 in1023.0 mb - 0.00 in0.0 mm 0.00 in0.0 mm
03:15 AM 39.2°F4.0°C 32.9°F0.5°C 78% 1.2 mph S1.9 kmh S 2.3 mph3.7 kmh 30.21 in1023.0 mb - 0.00 in0.0 mm 0.00 in0.0 mm
03:00 AM 39.4°F4.1°C 32.4°F0.2°C 76% 1.2 mph E1.9 kmh E 2.3 mph3.7 kmh 30.21 in1023.0 mb - 0.00 in0.0 mm 0.00 in0.0 mm
02:45 AM 39.7°F4.3°C 32.8°F0.4°C 76% 1.2 mph SE1.9 kmh SE 2.3 mph3.7 kmh 30.21 in1023.0 mb - 0.00 in0.0 mm 0.00 in0.0 mm
02:30 AM 40.3°F4.6°C 33.6°F0.9°C 77% Calm Calm 1.2 mph1.9 kmh 30.21 in1023.0 mb - 0.00 in0.0 mm 0.00 in0.0 mm
02:15 AM 39.7°F4.3°C 32.8°F0.4°C 76% 1.2 mph SE1.9 kmh SE 2.3 mph3.7 kmh 30.21 in1023.0 mb - 0.00 in0.0 mm 0.00 in0.0 mm
02:00 AM 40.3°F4.6°C 33.0°F0.6°C 75% 2.3 mph SE3.7 kmh SE 3.5 mph5.6 kmh 30.21 in1023.0 mb - 0.00 in0.0 mm 0.00 in0.0 mm
01:45 AM 40.5°F4.7°C 32.8°F0.4°C 74% 1.2 mph S1.9 kmh S 2.3 mph3.7 kmh 30.21 in1023.0 mb - 0.00 in0.0 mm 0.00 in0.0 mm
01:30 AM 41.0°F5.0°C 33.3°F0.7°C 74% 1.2 mph SE1.9 kmh SE 2.3 mph3.7 kmh 30.21 in1023.0 mb - 0.00 in0.0 mm 0.00 in0.0 mm
01:15 AM 41.4°F5.2°C 33.4°F0.8°C 73% 1.2 mph SE1.9 kmh SE 2.3 mph3.7 kmh 30.21 in1023.0 mb - 0.00 in0.0 mm 0.00 in0.0 mm
01:00 AM 41.9°F5.5°C 33.9°F1.1°C 73% 1.2 mph SE1.9 kmh SE 2.3 mph3.7 kmh 30.21 in1023.0 mb - 0.00 in0.0 mm 0.00 in0.0 mm
12:45 AM 42.3°F5.7°C 33.9°F1.1°C 72% 2.3 mph SE3.7 kmh SE 3.5 mph5.6 kmh 30.21 in1023.0 mb - 0.00 in0.0 mm 0.00 in0.0 mm
12:30 AM 42.2°F5.7°C 34.2°F1.2°C 73% 1.2 mph SE1.9 kmh SE 2.3 mph3.7 kmh 30.21 in1023.0 mb - 0.00 in0.0 mm 0.00 in0.0 mm
12:15 AM 42.3°F5.7°C 33.9°F1.1°C 72% 1.2 mph SE1.9 kmh SE 2.3 mph3.7 kmh 30.21 in1023.0 mb - 0.00 in0.0 mm 0.00 in0.0 mm
12:00 AM 43.2°F6.2°C 34.7°F1.5°C 72% 1.2 mph S1.9 kmh S 1.2 mph1.9 kmh 30.21 in1023.0 mb - 0.00 in0.0 mm 0.00 in0.0 mm